createdAt,value
2023-05-24T00:00:00.446Z,10
2023-05-24T00:01:01.739Z,10
2023-05-24T00:02:02.976Z,10
2023-05-24T00:03:04.252Z,9.9
2023-05-24T00:04:05.843Z,10
2023-05-24T00:05:07.399Z,9.9
2023-05-24T00:06:08.998Z,9.9
2023-05-24T00:07:10.168Z,9.9
2023-05-24T00:08:11.466Z,9.9
2023-05-24T00:09:12.632Z,9.9
2023-05-24T00:10:13.785Z,9.9
2023-05-24T00:11:14.951Z,9.9
2023-05-24T00:12:16.122Z,9.9
2023-05-24T00:13:17.279Z,9.9
2023-05-24T00:14:18.443Z,9.9
2023-05-24T00:15:19.638Z,9.9
2023-05-24T00:16:20.789Z,9.8
2023-05-24T00:17:22.056Z,9.8
2023-05-24T00:18:23.234Z,9.8
2023-05-24T00:19:24.401Z,9.8
2023-05-24T00:20:25.656Z,9.8
2023-05-24T00:21:26.897Z,9.8
2023-05-24T00:22:28.070Z,9.8
2023-05-24T00:23:29.217Z,9.8
2023-05-24T00:24:30.389Z,9.8
2023-05-24T00:25:31.554Z,9.8
2023-05-24T00:26:32.722Z,9.8
2023-05-24T00:27:33.896Z,9.8
2023-05-24T00:28:35.059Z,9.8
2023-05-24T00:29:36.224Z,9.7
2023-05-24T00:30:37.421Z,9.7
2023-05-24T00:31:38.574Z,9.7
2023-05-24T00:32:39.972Z,9.7
2023-05-24T00:33:41.194Z,9.7
2023-05-24T00:34:42.364Z,9.7
2023-05-24T00:35:43.520Z,9.7
2023-05-24T00:36:44.696Z,9.7
2023-05-24T00:37:45.885Z,9.7
2023-05-24T00:38:47.117Z,9.7
2023-05-24T00:39:48.313Z,9.7
2023-05-24T00:40:49.480Z,9.7
2023-05-24T00:41:50.650Z,9.7
2023-05-24T00:42:51.821Z,9.7
2023-05-24T00:43:52.973Z,9.7
2023-05-24T00:44:54.142Z,9.7
2023-05-24T00:45:55.355Z,9.7
2023-05-24T00:46:56.613Z,9.6
2023-05-24T00:47:57.799Z,9.6
2023-05-24T00:48:59.008Z,9.6
2023-05-24T00:50:00.352Z,9.6
2023-05-24T00:51:01.504Z,9.6
2023-05-24T00:52:02.669Z,9.6
2023-05-24T00:53:03.844Z,9.6
2023-05-24T00:54:05.008Z,9.6
2023-05-24T00:55:06.168Z,9.6
2023-05-24T00:56:07.343Z,9.6
2023-05-24T00:57:08.497Z,9.6
2023-05-24T00:58:09.674Z,9.6
2023-05-24T00:59:10.843Z,9.6
2023-05-24T01:00:12.000Z,9.6
2023-05-24T01:01:13.236Z,9.6
2023-05-24T01:02:14.503Z,9.6
2023-05-24T01:03:15.795Z,9.6
2023-05-24T01:04:17.244Z,9.6
2023-05-24T01:05:18.420Z,9.6
2023-05-24T01:06:21.060Z,9.6
2023-05-24T01:07:22.276Z,9.6
2023-05-24T01:08:23.441Z,9.6
2023-05-24T01:09:24.598Z,9.5
2023-05-24T01:10:25.773Z,9.5
2023-05-24T01:11:26.927Z,9.5
2023-05-24T01:12:28.090Z,9.5
2023-05-24T01:13:29.267Z,9.5
2023-05-24T01:14:30.464Z,9.5
2023-05-24T01:15:31.605Z,9.5
2023-05-24T01:16:32.835Z,9.5
2023-05-24T01:17:34.105Z,9.5
2023-05-24T01:18:35.329Z,9.5
2023-05-24T01:19:36.470Z,9.5
2023-05-24T01:20:37.707Z,9.5
2023-05-24T01:21:39.650Z,9.4
2023-05-24T01:22:40.819Z,9.4
2023-05-24T01:23:42.175Z,9.4
2023-05-24T01:24:43.300Z,9.4
2023-05-24T01:25:44.463Z,9.4
2023-05-24T01:26:45.625Z,9.4
2023-05-24T01:27:46.796Z,9.4
2023-05-24T01:28:47.969Z,9.4
2023-05-24T01:29:49.127Z,9.4
2023-05-24T01:30:50.332Z,9.4
2023-05-24T01:31:51.571Z,9.4
2023-05-24T01:32:53.018Z,9.4
2023-05-24T01:33:54.225Z,9.3
2023-05-24T01:34:55.395Z,9.4
2023-05-24T01:35:56.581Z,9.3
2023-05-24T01:36:57.741Z,9.3
2023-05-24T01:37:58.904Z,9.3
2023-05-24T01:39:00.078Z,9.3
2023-05-24T01:40:01.248Z,9.3
2023-05-24T01:41:02.407Z,9.3
2023-05-24T01:42:03.569Z,9.3
2023-05-24T01:43:04.737Z,9.3
2023-05-24T01:44:05.920Z,9.3
2023-05-24T01:45:07.090Z,9.3
2023-05-24T01:46:08.254Z,9.2
2023-05-24T01:47:09.477Z,9.2
2023-05-24T01:48:10.874Z,9.2
2023-05-24T01:49:12.039Z,9.2
2023-05-24T01:50:13.192Z,9.2
2023-05-24T01:51:14.365Z,9.2
2023-05-24T01:52:15.586Z,9.2
2023-05-24T01:53:16.910Z,9.2
2023-05-24T01:54:18.092Z,9.2
2023-05-24T01:55:19.245Z,9.2
2023-05-24T01:56:20.406Z,9.1
2023-05-24T01:57:21.580Z,9.1
2023-05-24T01:58:22.756Z,9.1
2023-05-24T01:59:23.910Z,9.1
2023-05-24T02:00:25.076Z,9.1
2023-05-24T02:01:26.290Z,9.1
2023-05-24T02:02:27.598Z,9.1
2023-05-24T02:03:29.099Z,9.1
2023-05-24T02:04:30.350Z,9.1
2023-05-24T02:05:31.578Z,9.1
2023-05-24T02:06:32.739Z,9.1
2023-05-24T02:07:33.898Z,9
2023-05-24T02:08:35.076Z,9
2023-05-24T02:09:36.243Z,9
2023-05-24T02:10:37.405Z,9
2023-05-24T02:11:38.562Z,9
2023-05-24T02:12:39.732Z,9
2023-05-24T02:13:40.898Z,9
2023-05-24T02:14:42.090Z,9
2023-05-24T02:15:43.390Z,9
2023-05-24T02:16:44.576Z,9
2023-05-24T02:17:45.858Z,9
2023-05-24T02:18:47.056Z,9
2023-05-24T02:19:48.260Z,9
2023-05-24T02:20:49.513Z,9
2023-05-24T02:21:50.682Z,9
2023-05-24T02:22:51.845Z,9
2023-05-24T02:23:53.009Z,9
2023-05-24T02:24:54.183Z,9
2023-05-24T02:25:55.340Z,9
2023-05-24T02:26:56.507Z,9
2023-05-24T02:27:57.668Z,8.9
2023-05-24T02:28:58.843Z,8.9
2023-05-24T02:30:00.038Z,8.9
2023-05-24T02:31:01.208Z,8.9
2023-05-24T02:32:02.598Z,8.9
2023-05-24T02:33:03.814Z,8.9
2023-05-24T02:34:05.062Z,8.9
2023-05-24T02:35:06.244Z,8.9
2023-05-24T02:36:07.409Z,8.9
2023-05-24T02:37:08.579Z,8.9
2023-05-24T02:38:09.793Z,8.9
2023-05-24T02:39:10.977Z,8.9
2023-05-24T02:40:12.615Z,8.9
2023-05-24T02:41:13.795Z,8.9
2023-05-24T02:42:14.959Z,8.9
2023-05-24T02:43:16.135Z,8.9
2023-05-24T02:44:17.290Z,8.9
2023-05-24T02:45:18.471Z,8.9
2023-05-24T02:46:19.676Z,8.9
2023-05-24T02:47:20.998Z,8.9
2023-05-24T02:48:22.229Z,8.9
2023-05-24T02:49:23.417Z,8.9
2023-05-24T02:50:24.706Z,8.9
2023-05-24T02:51:25.898Z,8.9
2023-05-24T02:52:27.066Z,8.9
2023-05-24T02:53:28.227Z,8.9
2023-05-24T02:54:29.396Z,8.9
2023-05-24T02:55:30.581Z,8.9
2023-05-24T02:56:31.766Z,8.9
2023-05-24T02:57:32.904Z,8.9
2023-05-24T02:58:34.082Z,8.9
2023-05-24T02:59:35.238Z,8.9
2023-05-24T03:00:36.415Z,8.9
2023-05-24T03:01:37.579Z,8.9
2023-05-24T03:02:38.913Z,8.9
2023-05-24T03:03:40.461Z,8.9
2023-05-24T03:04:41.947Z,8.9
2023-05-24T03:05:43.138Z,8.9
2023-05-24T03:06:44.309Z,8.9
2023-05-24T03:07:45.474Z,8.9
2023-05-24T03:08:46.630Z,8.9
2023-05-24T03:09:47.815Z,8.9
2023-05-24T03:10:48.971Z,8.9
2023-05-24T03:11:50.132Z,8.9
2023-05-24T03:12:51.291Z,8.9
2023-05-24T03:13:52.461Z,8.9
2023-05-24T03:14:53.625Z,8.9
2023-05-24T03:15:54.838Z,8.9
2023-05-24T03:16:56.048Z,8.9
2023-05-24T03:17:57.248Z,8.8
2023-05-24T03:18:58.483Z,8.8
2023-05-24T03:19:59.633Z,8.8
2023-05-24T03:21:01.007Z,8.8
2023-05-24T03:22:02.146Z,8.8
2023-05-24T03:23:03.313Z,8.8
2023-05-24T03:24:04.478Z,8.8
2023-05-24T03:25:05.645Z,8.8
2023-05-24T03:26:06.826Z,8.8
2023-05-24T03:27:07.976Z,8.8
2023-05-24T03:28:09.148Z,8.8
2023-05-24T03:29:10.322Z,8.8
2023-05-24T03:30:11.652Z,8.8
2023-05-24T03:31:12.838Z,8.8
2023-05-24T03:32:14.012Z,8.8
2023-05-24T03:33:15.181Z,8.8
2023-05-24T03:34:16.379Z,8.9
2023-05-24T03:35:17.550Z,8.9
2023-05-24T03:36:18.713Z,8.9
2023-05-24T03:37:19.887Z,8.9
2023-05-24T03:38:21.040Z,8.9
2023-05-24T03:39:22.209Z,8.9
2023-05-24T03:40:23.382Z,8.9
2023-05-24T03:41:25.032Z,8.9
2023-05-24T03:42:26.164Z,8.9
2023-05-24T03:43:27.332Z,8.9
2023-05-24T03:44:28.494Z,8.9
2023-05-24T03:45:38.307Z,9
2023-05-24T03:46:41.257Z,9
2023-05-24T03:47:42.587Z,9
2023-05-24T03:48:43.829Z,9
2023-05-24T03:49:45.025Z,9
2023-05-24T03:50:46.160Z,9
2023-05-24T03:51:47.343Z,9
2023-05-24T03:52:48.493Z,9
2023-05-24T03:53:49.708Z,9
2023-05-24T03:54:50.885Z,9
2023-05-24T03:55:52.048Z,9
2023-05-24T03:56:53.254Z,9.1
2023-05-24T03:57:54.439Z,9.1
2023-05-24T03:58:55.606Z,9.1
2023-05-24T03:59:56.765Z,9.1
2023-05-24T04:00:57.936Z,9.1
2023-05-24T04:01:59.138Z,9.2
2023-05-24T04:03:00.368Z,9.2
2023-05-24T04:04:01.908Z,9.2
2023-05-24T04:05:03.344Z,9.3
2023-05-24T04:06:04.487Z,9.3
2023-05-24T04:07:05.663Z,9.3
2023-05-24T04:08:06.842Z,9.4
2023-05-24T04:09:07.992Z,9.4
2023-05-24T04:10:09.174Z,9.5
2023-05-24T04:11:10.321Z,9.5
2023-05-24T04:12:11.515Z,9.5
2023-05-24T04:13:12.690Z,9.6
2023-05-24T04:14:13.841Z,9.6
2023-05-24T04:15:14.998Z,9.6
2023-05-24T04:16:16.166Z,9.7
2023-05-24T04:17:17.388Z,9.7
2023-05-24T04:18:18.902Z,9.7
2023-05-24T04:19:20.364Z,9.8
2023-05-24T04:20:21.546Z,9.8
2023-05-24T04:21:22.702Z,9.9
2023-05-24T04:22:25.533Z,9.9
2023-05-24T04:23:26.836Z,9.9
2023-05-24T04:24:28.009Z,10
2023-05-24T04:25:29.234Z,10
2023-05-24T04:26:30.406Z,10.1
2023-05-24T04:27:31.586Z,10.1
2023-05-24T04:28:32.734Z,10.2
2023-05-24T04:29:33.916Z,10.2
2023-05-24T04:30:35.076Z,10.3
2023-05-24T04:31:36.293Z,10.3
2023-05-24T04:32:37.523Z,10.4
2023-05-24T04:33:38.676Z,10.4
2023-05-24T04:34:39.839Z,10.4
2023-05-24T04:35:41.030Z,10.5
2023-05-24T04:36:42.172Z,10.5
2023-05-24T04:37:43.397Z,10.6
2023-05-24T04:38:44.520Z,10.6
2023-05-24T04:39:45.696Z,10.6
2023-05-24T04:40:46.863Z,10.7
2023-05-24T04:41:48.030Z,10.7
2023-05-24T04:42:49.205Z,10.7
2023-05-24T04:43:50.369Z,10.7
2023-05-24T04:44:51.531Z,10.8
2023-05-24T04:45:52.699Z,10.8
2023-05-24T04:46:53.924Z,10.8
2023-05-24T04:47:55.370Z,10.8
2023-05-24T04:48:56.566Z,10.8
2023-05-24T04:49:57.740Z,10.8
2023-05-24T04:50:59.012Z,10.8
2023-05-24T04:52:00.179Z,10.8
2023-05-24T04:53:01.345Z,10.9
2023-05-24T04:54:02.508Z,10.9
2023-05-24T04:55:03.684Z,10.9
2023-05-24T04:56:04.849Z,10.9
2023-05-24T04:57:06.004Z,10.9
2023-05-24T04:58:07.190Z,10.9
2023-05-24T04:59:09.709Z,10.9
2023-05-24T05:00:10.884Z,11
2023-05-24T05:01:12.044Z,11
2023-05-24T05:02:13.240Z,11
2023-05-24T05:03:14.666Z,11
2023-05-24T05:04:16.205Z,11
2023-05-24T05:05:17.375Z,11
2023-05-24T05:06:18.570Z,11.1
2023-05-24T05:07:19.717Z,11.1
2023-05-24T05:08:20.902Z,11.1
2023-05-24T05:09:22.044Z,11.1
2023-05-24T05:10:23.890Z,11.1
2023-05-24T05:11:25.098Z,11.1
2023-05-24T05:12:26.260Z,11.2
2023-05-24T05:13:27.430Z,11.2
2023-05-24T05:14:31.573Z,11.2
2023-05-24T05:15:32.777Z,11.2
2023-05-24T05:16:33.953Z,11.2
2023-05-24T05:17:35.206Z,11.2
2023-05-24T05:18:36.436Z,11.2
2023-05-24T05:19:37.594Z,11.3
2023-05-24T05:20:38.784Z,11.3
2023-05-24T05:21:40.334Z,11.3
2023-05-24T05:22:41.481Z,11.3
2023-05-24T05:23:42.651Z,11.4
2023-05-24T05:24:43.802Z,11.4
2023-05-24T05:25:44.973Z,11.4
2023-05-24T05:26:46.154Z,11.4
2023-05-24T05:27:47.324Z,11.5
2023-05-24T05:28:48.507Z,11.5
2023-05-24T05:29:49.799Z,11.5
2023-05-24T05:30:51.072Z,11.5
2023-05-24T05:31:52.256Z,11.6
2023-05-24T05:32:53.547Z,11.6
2023-05-24T05:33:55.018Z,11.6
2023-05-24T05:34:56.190Z,11.6
2023-05-24T05:35:57.355Z,11.7
2023-05-24T05:36:58.582Z,11.7
2023-05-24T05:37:59.716Z,11.7
2023-05-24T05:39:00.917Z,11.7
2023-05-24T05:40:02.069Z,11.8
2023-05-24T05:41:03.229Z,11.8
2023-05-24T05:42:04.408Z,11.9
2023-05-24T05:43:05.569Z,11.9
2023-05-24T05:44:06.950Z,11.9
2023-05-24T05:45:08.076Z,11.9
2023-05-24T05:46:09.267Z,12
2023-05-24T05:47:10.424Z,12
2023-05-24T05:48:11.601Z,12
2023-05-24T05:49:12.820Z,12.1
2023-05-24T05:50:14.051Z,12.1
2023-05-24T05:51:15.214Z,12.2
2023-05-24T05:52:16.412Z,12.2
2023-05-24T05:53:17.547Z,12.2
2023-05-24T05:54:18.722Z,12.3
2023-05-24T05:55:19.874Z,12.3
2023-05-24T05:56:21.055Z,12.4
2023-05-24T05:57:22.222Z,12.4
2023-05-24T05:58:23.380Z,12.4
2023-05-24T05:59:24.604Z,12.4
2023-05-24T06:00:25.740Z,12.4
2023-05-24T06:01:26.922Z,12.4
2023-05-24T06:02:28.169Z,12.4
2023-05-24T06:03:29.654Z,12.4
2023-05-24T06:04:31.593Z,12.5
2023-05-24T06:05:32.866Z,12.5
2023-05-24T06:06:34.024Z,12.5
2023-05-24T06:07:35.217Z,12.6
2023-05-24T06:08:36.355Z,12.6
2023-05-24T06:09:37.526Z,12.7
2023-05-24T06:10:38.691Z,12.7
2023-05-24T06:11:39.886Z,12.7
2023-05-24T06:12:41.020Z,12.8
2023-05-24T06:13:42.194Z,12.8
2023-05-24T06:14:43.376Z,12.8
2023-05-24T06:15:44.537Z,12.9
2023-05-24T06:16:45.712Z,12.9
2023-05-24T06:17:46.889Z,13
2023-05-24T06:18:57.475Z,13
2023-05-24T06:20:07.428Z,13.1
2023-05-24T06:21:08.685Z,13.1
2023-05-24T06:22:09.851Z,13.1
2023-05-24T06:23:11.083Z,13.1
2023-05-24T06:24:12.212Z,13.2
2023-05-24T06:25:13.388Z,13.2
2023-05-24T06:26:14.701Z,13.3
2023-05-24T06:27:15.867Z,13.3
2023-05-24T06:28:17.029Z,13.4
2023-05-24T06:29:18.204Z,13.4
2023-05-24T06:30:19.456Z,13.5
2023-05-24T06:31:20.703Z,13.5
2023-05-24T06:32:22.045Z,13.6
2023-05-24T06:33:23.199Z,13.7
2023-05-24T06:34:24.363Z,13.7
2023-05-24T06:35:25.533Z,13.7
2023-05-24T06:36:26.696Z,13.8
2023-05-24T06:37:27.873Z,13.8
2023-05-24T06:38:29.054Z,13.9
2023-05-24T06:39:30.220Z,13.9
2023-05-24T06:40:31.402Z,14
2023-05-24T06:41:32.545Z,14
2023-05-24T06:42:33.712Z,14
2023-05-24T06:43:34.880Z,14.1
2023-05-24T06:44:36.049Z,14.1
2023-05-24T06:45:37.306Z,14.1
2023-05-24T06:46:38.519Z,14.2
2023-05-24T06:47:39.839Z,14.2
2023-05-24T06:48:41.217Z,14.3
2023-05-24T06:49:42.624Z,14.3
2023-05-24T06:50:44.042Z,14.4
2023-05-24T06:51:45.695Z,14.4
2023-05-24T06:52:47.642Z,14.5
2023-05-24T06:53:48.940Z,14.5
2023-05-24T06:54:50.212Z,14.6
2023-05-24T06:55:51.385Z,14.7
2023-05-24T06:56:52.530Z,14.7
2023-05-24T06:57:53.696Z,14.8
2023-05-24T06:58:54.860Z,14.9
2023-05-24T06:59:56.028Z,15
2023-05-24T07:00:57.230Z,15
2023-05-24T07:02:00.579Z,15.1
2023-05-24T07:03:05.326Z,15.2
2023-05-24T07:04:06.598Z,15.3
2023-05-24T07:05:07.752Z,15.4
2023-05-24T07:06:08.933Z,15.5
2023-05-24T07:07:10.096Z,15.6
2023-05-24T07:08:11.269Z,15.7
2023-05-24T07:09:12.445Z,15.8
2023-05-24T07:10:13.667Z,16
2023-05-24T07:11:14.849Z,16.2
2023-05-24T07:12:16.013Z,16.2
2023-05-24T07:13:17.171Z,16.2
2023-05-24T07:14:18.349Z,16.2
2023-05-24T07:15:19.517Z,16.3
2023-05-24T07:16:20.694Z,16.3
2023-05-24T07:17:24.536Z,16.5
2023-05-24T07:18:25.696Z,16.5
2023-05-24T07:19:26.885Z,16.7
2023-05-24T07:20:28.122Z,16.9
2023-05-24T07:21:29.432Z,17.2
2023-05-24T07:22:30.600Z,17.3
2023-05-24T07:23:31.767Z,17.6
2023-05-24T07:24:32.984Z,17.7
2023-05-24T07:25:34.117Z,17.6
2023-05-24T07:26:35.286Z,17.6
2023-05-24T07:27:36.446Z,17.6
2023-05-24T07:28:37.623Z,17.8
2023-05-24T07:29:38.776Z,18
2023-05-24T07:30:39.969Z,18.2
2023-05-24T07:31:41.233Z,18.2
2023-05-24T07:32:42.466Z,18.3
2023-05-24T07:33:43.967Z,18.2
2023-05-24T07:34:45.130Z,18.2
2023-05-24T07:35:46.302Z,18.2
2023-05-24T07:36:47.464Z,18.2
2023-05-24T07:37:48.671Z,18.2
2023-05-24T07:38:49.799Z,18.3
2023-05-24T07:39:50.991Z,18.5
2023-05-24T07:40:52.137Z,18.9
2023-05-24T07:41:53.439Z,19
2023-05-24T07:42:54.721Z,19
2023-05-24T07:43:55.956Z,19.2
2023-05-24T07:44:57.354Z,19.1
2023-05-24T07:45:58.559Z,19.1
2023-05-24T07:46:59.740Z,19.3
2023-05-24T07:48:01.026Z,19.6
2023-05-24T07:49:02.602Z,19.9
2023-05-24T07:50:03.768Z,20.1
2023-05-24T07:51:04.937Z,20.2
2023-05-24T07:52:06.109Z,20.4
2023-05-24T07:53:07.281Z,20.6
2023-05-24T07:54:08.582Z,20.6
2023-05-24T07:55:09.888Z,20.6
2023-05-24T07:56:11.042Z,20.9
2023-05-24T07:57:12.206Z,21
2023-05-24T07:58:13.370Z,21.2
2023-05-24T07:59:14.575Z,21.3
2023-05-24T08:00:15.733Z,21.3
2023-05-24T08:01:16.913Z,21.4
2023-05-24T08:02:18.105Z,21.4
2023-05-24T08:03:19.359Z,21.5
2023-05-24T08:04:20.719Z,21.4
2023-05-24T08:05:21.883Z,21.3
2023-05-24T08:06:23.069Z,21.3
2023-05-24T08:07:24.366Z,21.2
2023-05-24T08:08:25.933Z,21.1
2023-05-24T08:09:27.114Z,21
2023-05-24T08:10:28.343Z,20.9
2023-05-24T08:11:29.486Z,20.9
2023-05-24T08:12:30.646Z,21
2023-05-24T08:13:31.808Z,20.9
2023-05-24T08:14:32.982Z,20.8
2023-05-24T08:15:34.148Z,20.7
2023-05-24T08:16:35.383Z,20.7
2023-05-24T08:17:36.703Z,20.6
2023-05-24T08:18:38.052Z,20.6
2023-05-24T08:19:39.235Z,20.6
2023-05-24T08:20:40.518Z,20.7
2023-05-24T08:21:42.247Z,20.6
2023-05-24T08:22:43.404Z,20.6
2023-05-24T08:23:44.688Z,20.6
2023-05-24T08:24:45.858Z,20.6
2023-05-24T08:25:47.056Z,20.6
2023-05-24T08:26:48.193Z,20.6
2023-05-24T08:27:49.420Z,20.7
2023-05-24T08:28:50.672Z,20.7
2023-05-24T08:29:52.551Z,20.7
2023-05-24T08:30:57.574Z,20.6
2023-05-24T08:31:58.786Z,20.6
2023-05-24T08:33:00.058Z,20.6
2023-05-24T08:34:01.619Z,20.7
2023-05-24T08:35:18.070Z,20.7
2023-05-24T08:36:22.817Z,20.8
2023-05-24T08:37:23.981Z,20.8
2023-05-24T08:38:25.154Z,20.8
2023-05-24T08:39:26.319Z,20.8
2023-05-24T08:40:27.500Z,20.8
2023-05-24T08:41:28.717Z,20.8
2023-05-24T08:42:29.864Z,20.8
2023-05-24T08:43:32.683Z,20.8
2023-05-24T08:44:33.992Z,20.8
2023-05-24T08:45:35.157Z,20.8
2023-05-24T08:46:36.372Z,20.9
2023-05-24T08:47:37.630Z,20.9
2023-05-24T08:48:38.879Z,20.9
2023-05-24T08:49:40.107Z,21
2023-05-24T08:50:41.274Z,21
2023-05-24T08:51:42.446Z,21
2023-05-24T08:52:43.605Z,21
2023-05-24T08:53:44.780Z,21.1
2023-05-24T08:54:45.936Z,21.1
2023-05-24T08:55:47.127Z,21.1
2023-05-24T08:56:48.371Z,21.1
2023-05-24T08:57:49.511Z,21.1
2023-05-24T08:58:50.683Z,21.1
2023-05-24T08:59:51.852Z,21.1
2023-05-24T09:00:53.016Z,21.1
2023-05-24T09:01:54.265Z,21.1
2023-05-24T09:02:55.569Z,21.2
2023-05-24T09:03:56.810Z,21.2
2023-05-24T09:04:57.969Z,21.2
2023-05-24T09:05:59.136Z,21.2
2023-05-24T09:07:00.308Z,21.3
2023-05-24T09:08:01.479Z,21.3
2023-05-24T09:09:02.635Z,21.3
2023-05-24T09:10:03.857Z,21.3
2023-05-24T09:11:07.920Z,21.3
2023-05-24T09:12:09.140Z,21.3
2023-05-24T09:13:10.279Z,21.3
2023-05-24T09:14:11.471Z,21.3
2023-05-24T09:15:12.611Z,21.3
2023-05-24T09:16:13.835Z,21.3
2023-05-24T09:17:15.058Z,21.3
2023-05-24T09:18:16.242Z,21.3
2023-05-24T09:19:17.573Z,21.3
2023-05-24T09:20:18.800Z,21.4
2023-05-24T09:21:20.160Z,21.4
2023-05-24T09:22:21.317Z,21.4
2023-05-24T09:23:22.487Z,21.4
2023-05-24T09:24:23.652Z,21.4
2023-05-24T09:25:24.823Z,21.4
2023-05-24T09:26:26.010Z,21.4
2023-05-24T09:27:27.200Z,21.4
2023-05-24T09:28:28.338Z,21.3
2023-05-24T09:29:29.497Z,21.3
2023-05-24T09:30:30.689Z,21.3
2023-05-24T09:31:31.905Z,21.2
2023-05-24T09:32:33.124Z,21.2
2023-05-24T09:33:34.616Z,21.2
2023-05-24T09:34:35.783Z,21.2
2023-05-24T09:35:36.952Z,21.2
2023-05-24T09:36:38.129Z,21.2
2023-05-24T09:37:39.286Z,21.2
2023-05-24T09:38:40.447Z,21.2
2023-05-24T09:39:41.612Z,21.3
2023-05-24T09:40:42.900Z,21.6
2023-05-24T09:41:44.753Z,21.6
2023-05-24T09:42:46.021Z,22.1
2023-05-24T09:43:47.161Z,22.5
2023-05-24T09:44:48.322Z,22.3
2023-05-24T09:45:49.516Z,22.3
2023-05-24T09:46:50.815Z,22.4
2023-05-24T09:47:52.045Z,22.4
2023-05-24T09:48:53.275Z,22.4
2023-05-24T09:49:54.461Z,22.4
2023-05-24T09:50:55.614Z,22.4
2023-05-24T09:51:56.935Z,22.4
2023-05-24T09:52:58.126Z,22.3
2023-05-24T09:53:59.298Z,22.3
2023-05-24T09:55:00.457Z,22.2
2023-05-24T09:56:01.742Z,22.1
2023-05-24T09:57:04.853Z,22
2023-05-24T09:58:06.292Z,21.9
2023-05-24T09:59:07.419Z,21.9
2023-05-24T10:00:08.598Z,21.8
2023-05-24T10:01:09.780Z,21.7
2023-05-24T10:02:11.090Z,21.6
2023-05-24T10:03:12.366Z,21.5
2023-05-24T10:04:14.710Z,21.4
2023-05-24T10:05:16.205Z,21.3
2023-05-24T10:06:17.363Z,21.2
2023-05-24T10:07:18.546Z,21.1
2023-05-24T10:08:19.693Z,21
2023-05-24T10:09:20.862Z,20.9
2023-05-24T10:10:22.031Z,20.8
2023-05-24T10:11:23.192Z,20.7
2023-05-24T10:12:24.389Z,20.7
2023-05-24T10:13:25.588Z,20.6
2023-05-24T10:14:26.723Z,20.5
2023-05-24T10:15:27.889Z,20.4
2023-05-24T10:16:29.073Z,20.3
2023-05-24T10:17:30.374Z,20.3
2023-05-24T10:18:31.542Z,20.2
2023-05-24T10:19:32.709Z,20.1
2023-05-24T10:20:33.936Z,20.1
2023-05-24T10:21:35.117Z,20
2023-05-24T10:22:36.368Z,20
2023-05-24T10:23:37.640Z,20
2023-05-24T10:24:38.816Z,19.9
2023-05-24T10:25:39.976Z,19.9
2023-05-24T10:26:41.142Z,19.9
2023-05-24T10:27:42.317Z,19.9
2023-05-24T10:28:43.702Z,19.9
2023-05-24T10:29:44.864Z,19.9
2023-05-24T10:30:46.361Z,19.9
2023-05-24T10:31:48.525Z,20
2023-05-24T10:32:49.741Z,20
2023-05-24T10:33:50.897Z,20
2023-05-24T10:34:52.208Z,20.1
2023-05-24T10:35:53.380Z,20.2
2023-05-24T10:36:54.546Z,20.3
2023-05-24T10:37:55.729Z,20.4
2023-05-24T10:38:56.918Z,20.5
2023-05-24T10:39:58.081Z,20.6
2023-05-24T10:40:59.286Z,20.6
2023-05-24T10:42:00.603Z,20.7
2023-05-24T10:43:02.025Z,20.7
2023-05-24T10:45:10.820Z,20.8
2023-05-24T10:46:12.025Z,20.8
2023-05-24T10:47:13.386Z,20.8
2023-05-24T10:48:14.650Z,20.8
2023-05-24T10:49:16.057Z,20.8
2023-05-24T10:50:17.227Z,20.8
2023-05-24T10:51:18.407Z,20.8
2023-05-24T10:52:19.577Z,20.8
2023-05-24T10:53:20.744Z,20.7
2023-05-24T10:54:21.920Z,20.7
2023-05-24T10:55:23.086Z,20.7
2023-05-24T10:56:24.254Z,20.7
2023-05-24T10:57:25.407Z,20.7
2023-05-24T10:58:26.711Z,20.6
2023-05-24T10:59:27.904Z,20.6
2023-05-24T11:01:48.745Z,20.5
2023-05-24T11:02:49.980Z,20.5
2023-05-24T11:03:51.144Z,20.5
2023-05-24T11:04:52.327Z,20.5
2023-05-24T11:05:53.685Z,20.5
2023-05-24T11:06:55.345Z,20.5
2023-05-24T11:07:56.547Z,20.5
2023-05-24T11:08:57.709Z,20.5
2023-05-24T11:09:58.877Z,20.4
2023-05-24T11:11:05.795Z,20.4
2023-05-24T11:12:29.064Z,20.4
2023-05-24T11:13:30.244Z,20.4
2023-05-24T11:14:31.434Z,20.4
2023-05-24T11:15:32.568Z,20.4
2023-05-24T11:16:33.764Z,20.4
2023-05-24T11:17:35.172Z,20.4
2023-05-24T11:18:36.342Z,20.4
2023-05-24T11:19:37.515Z,20.4
2023-05-24T11:20:38.703Z,20.4
2023-05-24T11:21:39.898Z,20.4
2023-05-24T11:22:41.066Z,20.4
2023-05-24T11:23:42.227Z,20.4
2023-05-24T11:24:43.396Z,20.5
2023-05-24T11:25:44.581Z,20.5
2023-05-24T11:26:45.806Z,20.6
2023-05-24T11:27:46.968Z,20.6
2023-05-24T11:28:48.152Z,20.6
2023-05-24T11:29:49.405Z,20.7
2023-05-24T11:30:50.559Z,20.7
2023-05-24T11:31:51.754Z,20.8
2023-05-24T11:32:53.175Z,20.8
2023-05-24T11:33:54.402Z,20.8
2023-05-24T11:34:55.564Z,20.8
2023-05-24T11:35:56.731Z,20.9
2023-05-24T11:36:57.899Z,21
2023-05-24T11:37:59.082Z,21
2023-05-24T11:39:00.229Z,21.1
2023-05-24T11:40:01.415Z,21.1
2023-05-24T11:41:02.564Z,21.2
2023-05-24T11:42:03.733Z,21.3
2023-05-24T11:43:04.918Z,21.3
2023-05-24T11:44:06.062Z,21.4
2023-05-24T11:45:07.323Z,21.5
2023-05-24T11:46:08.514Z,21.5
2023-05-24T11:47:09.782Z,21.6
2023-05-24T11:48:11.017Z,21.6
2023-05-24T11:49:12.228Z,21.7
2023-05-24T11:50:13.401Z,21.7
2023-05-24T11:51:14.605Z,21.8
2023-05-24T11:52:15.777Z,21.9
2023-05-24T11:53:17.126Z,22
2023-05-24T11:54:18.285Z,22.6
2023-05-24T11:55:19.452Z,22.7
2023-05-24T11:56:20.618Z,22.8
2023-05-24T11:57:21.794Z,22.9
2023-05-24T11:58:23.172Z,22.9
2023-05-24T11:59:24.326Z,23
2023-05-24T12:00:25.510Z,23
2023-05-24T12:01:26.655Z,23.1
2023-05-24T12:02:27.942Z,23.1
2023-05-24T12:03:29.258Z,23.1
2023-05-24T12:04:30.984Z,23.1
2023-05-24T12:05:32.162Z,23.1
2023-05-24T12:06:33.332Z,23.2
2023-05-24T12:07:34.497Z,23.2
2023-05-24T12:08:35.671Z,23.2
2023-05-24T12:09:36.831Z,23.2
2023-05-24T12:10:38.008Z,23.2
2023-05-24T12:11:39.166Z,23.1
2023-05-24T12:12:45.499Z,23.1
2023-05-24T12:13:47.251Z,23.1
2023-05-24T12:14:48.398Z,23
2023-05-24T12:15:51.436Z,23
2023-05-24T12:16:57.471Z,23
2023-05-24T12:17:58.663Z,23
2023-05-24T12:19:05.612Z,22.9
2023-05-24T12:20:31.764Z,22.9
2023-05-24T12:21:32.979Z,22.9
2023-05-24T12:22:34.187Z,22.9
2023-05-24T12:23:35.344Z,22.8
2023-05-24T12:24:36.518Z,22.8
2023-05-24T12:25:37.678Z,22.8
2023-05-24T12:26:38.849Z,22.7
2023-05-24T12:27:41.092Z,22.7
2023-05-24T12:28:42.305Z,22.6
2023-05-24T12:29:43.487Z,22.6
2023-05-24T12:30:44.758Z,22.6
2023-05-24T12:31:46.222Z,22.5
2023-05-24T12:32:47.757Z,22.5
2023-05-24T12:33:48.957Z,22.4
2023-05-24T12:34:53.968Z,22.4
2023-05-24T12:35:55.159Z,22.4
2023-05-24T12:36:56.320Z,22.4
2023-05-24T12:37:57.483Z,22.3
2023-05-24T12:39:00.820Z,22.3
2023-05-24T12:40:01.983Z,22.3
2023-05-24T12:41:12.739Z,22.4
2023-05-24T12:42:15.091Z,22.4
2023-05-24T12:43:16.267Z,22.4
2023-05-24T12:44:17.428Z,22.4
2023-05-24T12:45:18.601Z,22.5
2023-05-24T12:46:19.797Z,22.6
2023-05-24T12:47:21.099Z,22.7
2023-05-24T12:48:22.506Z,22.8
2023-05-24T12:49:23.679Z,22.9
2023-05-24T12:50:24.855Z,23
2023-05-24T12:51:26.017Z,23.1
2023-05-24T12:52:27.187Z,23.1
2023-05-24T12:53:28.348Z,23.1
2023-05-24T12:54:29.532Z,23.1
2023-05-24T12:55:30.796Z,23.1
2023-05-24T12:56:31.969Z,23.2
2023-05-24T12:57:33.133Z,23.3
2023-05-24T12:58:34.298Z,23.4
2023-05-24T12:59:35.470Z,23.5
2023-05-24T13:00:36.629Z,23.5
2023-05-24T13:01:38.216Z,23.5
2023-05-24T13:02:40.151Z,23.5
2023-05-24T13:03:41.667Z,23.5
2023-05-24T13:04:42.835Z,23.5
2023-05-24T13:05:44.071Z,23.5
2023-05-24T13:06:45.414Z,23.5
2023-05-24T13:07:46.617Z,23.5
2023-05-24T13:08:47.754Z,23.5
2023-05-24T13:09:48.925Z,23.5
2023-05-24T13:10:50.095Z,23.4
2023-05-24T13:11:51.288Z,23.4
2023-05-24T13:12:52.438Z,23.4
2023-05-24T13:13:53.603Z,23.3
2023-05-24T13:14:54.771Z,23.3
2023-05-24T13:15:55.949Z,23.2
2023-05-24T13:16:57.151Z,23.2
2023-05-24T13:17:58.441Z,23.1
2023-05-24T13:18:59.677Z,23.1
2023-05-24T13:20:00.842Z,23
2023-05-24T13:21:02.188Z,23
2023-05-24T13:22:03.335Z,22.9
2023-05-24T13:23:04.511Z,22.9
2023-05-24T13:24:05.668Z,22.8
2023-05-24T13:25:06.927Z,22.8
2023-05-24T13:26:08.093Z,22.7
2023-05-24T13:27:09.255Z,22.7
2023-05-24T13:28:10.422Z,22.6
2023-05-24T13:30:37.208Z,22.6
2023-05-24T13:31:38.534Z,22.5
2023-05-24T13:32:41.218Z,22.5
2023-05-24T13:33:42.631Z,22.5
2023-05-24T13:34:43.772Z,22.4
2023-05-24T13:35:45.190Z,22.4
2023-05-24T13:36:46.773Z,22.4
2023-05-24T13:37:47.943Z,22.3
2023-05-24T13:38:54.277Z,22.3
2023-05-24T13:40:16.638Z,22.3
2023-05-24T13:41:17.980Z,22.3
2023-05-24T13:42:19.213Z,22.2
2023-05-24T13:43:20.486Z,22.2
2023-05-24T13:44:21.654Z,22.2
2023-05-24T13:45:22.818Z,22.2
2023-05-24T13:46:24.077Z,22.2
2023-05-24T13:47:35.775Z,22.2
2023-05-24T13:48:42.214Z,22.2
2023-05-24T13:49:43.434Z,22.2
2023-05-24T13:50:44.861Z,22.2
2023-05-24T13:51:46.436Z,22.2
2023-05-24T13:52:47.608Z,22.2
2023-05-24T13:53:48.816Z,22.2
2023-05-24T13:54:49.966Z,22.2
2023-05-24T13:55:51.110Z,22.2